AirNav   Pilot Hours Calculator
 
 1742 users online  

ME45 Goosefair Airport
Kennebunkport, Maine, USA

GOING TO KENNEBUNKPORT?


FAA INFORMATION EFFECTIVE 07 OCTOBER 2021

Location

FAA Identifier: ME45
Lat/Long: 43-24-20.3080N 070-25-56.1810W
43-24.338467N 070-25.936350W
43.4056411,-70.4322725
(estimated)
Elevation: 40 ft. / 12 m (estimated)
Variation: 17W (1985)
From city: 3 miles NE of KENNEBUNKPORT, ME
Time zone: UTC -4 (UTC -5 during Standard Time)
Zip code: 04046

Airport Operations

Airport use: Private use. Permission required prior to landing
Activation date: 07/1989
Control tower: no
ARTCC: BOSTON CENTER
FSS: BANGOR FLIGHT SERVICE STATION
Attendance: 
Segmented circle: no

Airport Communications

WX AWOS-3PT at SFM (12 nm W): 120.025 (207-324-1958)
WX ASOS at PWM (15 nm N): 119.05 (207-874-7914)

Nearby radio navigation aids

VOR radial/distance  VOR name  Freq  Var
ENEr116/8.0KENNEBUNK VOR/DME117.1017W
PSMr058/26.0PEASE VOR/DME116.5016W

 
NDB name  Hdg/Dist  Freq  Var  ID
ROLLINS073/20.626016WESG . ... --.

Airport Services

Runway Information

Runway 14/32

Dimensions: 1600 x 40 ft. / 488 x 12 m
Surface: gravel
RUNWAY 14  RUNWAY 32
Traffic pattern: leftleft
Obstructions: none30 ft. trees

Airport Ownership and Management from official FAA records

Ownership: Privately-owned
Owner: DAVID L BURNHAM
RFD 2 BOX 939
KENNEBUNKPORT, ME 04046
Phone 207-967-2868
Manager: DAVID L BURNHAM
RFD 2 BOX 939
KENNEBUNKPORT, ME 04046
Phone 207-967-2868

Additional Remarks

FOR CD CTC PORTLAND APCH AT 207-874-7320, WHEN APCH CLSD CTC BOSTON ARTCC AT 603-879-6859.

Instrument Procedures

There are no published instrument procedures at ME45.

Some nearby airports with instrument procedures:

B19 - Biddeford Municipal Airport (4 nm NW)
KSFM - Sanford Seacoast Regional Airport (12 nm W)
KPWM - Portland International Jetport (15 nm N)
3B4 - Littlebrook Air Park (22 nm SW)
KDAW - Skyhaven Airport (23 nm W)
 
Loc | Ops | Rwys | IFR | FBO | Links
Com | Nav | Svcs | Stats | Notes
Area around ME45 (Goosefair Airport)
 
Road maps at: MapQuest Bing Google
 
Aerial photo
No photo
 
Sectional chart

 
Airport distance calculator
Flying to Goosefair Airport? Find the distance to fly.

From to ME45

Sunrise and sunset
Times for 19-Oct-2021
 Local
(UTC-4)
 Zulu
(UTC)
Morning civil twilight06:3310:33
Sunrise07:0211:02
Sunset17:5221:52
Evening civil twilight18:2122:21

Current date and time
Zulu (UTC)  19-Oct-2021 16:34:57
Local (UTC-4)  19-Oct-2021 12:34:57
 
METAR
KSFM 
12nm W 
191556Z AUTO 27014G20KT 10SM BKN037 12/03 A2978 RMK AO2 SLP089 T01220033
KPWM 
16nm N 
191551Z 29011G17KT 10SM FEW038 FEW100 SCT250 11/04 A2976 RMK AO2 SLP077 T01060039
KDAW 
22nm W 
191551Z AUTO 29007G18KT 10SM OVC037 11/03 A2979 RMK AO2 SLP087 T01060028
TAF
KPWM 
16nm N 
191120Z 1912/2012 26005KT P6SM SCT120 FM191500 31012G20KT P6SM BKN060 FM192300 30005KT P6SM SCT250
NOTAMs
Click for the latest NOTAMs
NOTAMs are issued by the DoD/FAA and will open in a separate window not controlled by AirNav.

 

 
 

Would you like to see your business listed on this page?

 If your business provides an interesting product or service to pilots, flight crews, aircraft, or users of the Goosefair Airport, you should consider listing it here.  To start the listing process, click on the button below
 
Add a business
 

Other Pages about Goosefair Airport

Update a link
 
Copyright © AirNav, LLC. All rights reserved. Privacy Policy  Contact